Time,TemperatureF,DewpointF,PressureIn,WindDirection,WindDirectionDegrees,WindSpeedMPH,WindSpeedGustMPH,Humidity,HourlyPrecipIn,Conditions,Clouds,dailyrainin,SolarRadiationWatts/m^2,SoftwareType,DateUTC
2013-08-06 01:00:00,71.0,34.0,-100.00,SSE,147,3.0,6.0,25,-99.99,,,-99.99,0.000000,,2013-08-06 07:00:00,
2013-08-06 01:32:00,71.0,34.0,-100.00,SSE,147,3.0,6.0,25,-99.99,,,-99.99,0.000000,,2013-08-06 07:32:00,
2013-08-06 01:43:00,71.0,34.0,-100.00,SSE,147,3.0,6.0,25,-99.99,,,-99.99,0.000000,,2013-08-06 07:43:00,
2013-08-06 01:53:00,71.0,34.0,-100.00,SSE,147,3.0,6.0,25,-99.99,,,-99.99,0.000000,,2013-08-06 07:53:00,
2013-08-06 03:00:00,71.0,30.0,-100.00,ESE,117,2.0,6.0,22,-99.99,,,-99.99,0.000000,,2013-08-06 09:00:00,
2013-08-06 04:00:00,68.0,31.0,-100.00,ESE,120,2.0,4.0,25,-99.99,,,-99.99,0.000000,,2013-08-06 10:00:00,
2013-08-06 05:00:00,69.0,31.0,-100.00,SE,139,3.0,4.0,24,-99.99,,,-99.99,0.000000,,2013-08-06 11:00:00,
2013-08-06 07:00:00,64.0,32.0,-100.00,SE,144,2.0,3.0,30,-99.99,,,-99.99,0.000000,,2013-08-06 13:00:00,
2013-08-06 08:00:00,72.0,33.0,-100.00,SE,145,3.0,4.0,24,-99.99,,,-99.99,70.250000,,2013-08-06 14:00:00,
2013-08-06 09:00:00,74.0,36.0,-100.00,SSE,168,3.0,4.0,25,-99.99,,,-99.99,154.100006,,2013-08-06 15:00:00,
2013-08-06 09:52:00,74.0,36.0,-100.00,SSE,168,3.0,4.0,25,-99.99,,,-99.99,154.100006,,2013-08-06 15:52:00,
2013-08-06 14:00:00,86.0,30.0,-100.00,SSW,207,6.0,10.0,13,-99.99,,,-99.99,664.700012,,2013-08-06 20:00:00,
2013-08-06 16:00:00,91.0,27.0,-100.00,South,185,6.0,18.0,10,-99.99,,,-99.99,795.099976,,2013-08-06 22:00:00,
2013-08-06 17:00:00,87.0,30.0,-100.00,NNW,337,13.0,-999.0,13,-99.99,,,-99.99,612.099976,,2013-08-06 23:00:00,
2013-08-06 17:52:00,87.0,30.0,-100.00,NNW,337,13.0,-999.0,13,-99.99,,,-99.99,612.099976,,2013-08-06 23:52:00,
2013-08-06 18:00:00,89.0,30.0,-100.00,North,8,18.0,-999.0,12,-99.99,,,-99.99,586.200012,,2013-08-07 00:00:00,
2013-08-06 20:00:00,81.0,31.0,-100.00,NNE,18,7.0,19.0,16,-99.99,,,-99.99,62.200001,,2013-08-07 02:00:00,
2013-08-06 21:00:00,78.0,31.0,-100.00,ENE,57,2.0,11.0,18,-99.99,,,-99.99,7.220000,,2013-08-07 03:00:00,
2013-08-06 22:00:00,76.0,31.0,-100.00,SE,139,1.0,5.0,19,-99.99,,,-99.99,0.000000,,2013-08-07 04:00:00,
2013-08-06 22:52:00,76.0,31.0,-100.00,SE,139,1.0,5.0,19,-99.99,,,-99.99,0.000000,,2013-08-07 04:52:00,
2013-08-06 23:00:00,73.0,32.0,-100.00,SE,139,2.0,4.0,22,-99.99,,,-99.99,0.000000,,2013-08-07 05:00:00,